createdAt,value
2018-06-28T00:02:09.811Z,4.67
2018-06-28T00:04:39.547Z,4.60
2018-06-28T00:07:08.323Z,4.40
2018-06-28T00:09:37.280Z,4.90
2018-06-28T00:12:06.176Z,4.30
2018-06-28T00:14:39.847Z,5.30
2018-06-28T00:17:20.451Z,4.83
2018-06-28T00:19:51.204Z,5.10
2018-06-28T00:22:29.755Z,5.17
2018-06-28T00:24:58.519Z,4.37
2018-06-28T00:27:34.131Z,4.97
2018-06-28T00:30:05.189Z,4.83
2018-06-28T00:32:37.311Z,4.57
2018-06-28T00:35:08.131Z,4.23
2018-06-28T00:37:38.919Z,4.47
2018-06-28T00:40:17.483Z,4.30
2018-06-28T00:42:46.351Z,5.20
2018-06-28T00:45:21.664Z,6.43
2018-06-28T00:47:56.519Z,4.33
2018-06-28T00:50:28.907Z,4.90
2018-06-28T00:53:15.027Z,7.73
2018-06-28T00:55:45.819Z,5.00
2018-06-28T00:58:15.637Z,7.23
2018-06-28T01:03:48.073Z,5.10
2018-06-28T01:06:18.911Z,5.30
2018-06-28T01:08:48.671Z,9.53
2018-06-28T01:11:20.667Z,5.17
2018-06-28T01:13:50.443Z,5.67
2018-06-28T01:16:24.059Z,6.23
2018-06-28T01:18:54.811Z,6.00
2018-06-28T01:21:30.267Z,5.93
2018-06-28T01:24:11.255Z,5.33
2018-06-28T01:26:52.950Z,5.63
2018-06-28T01:29:21.763Z,5.70
2018-06-28T01:31:50.575Z,7.63
2018-06-28T01:34:24.759Z,5.23
2018-06-28T01:36:53.789Z,5.40
2018-06-28T01:39:29.751Z,5.80
2018-06-28T01:42:15.471Z,6.73
2018-06-28T01:44:49.007Z,5.70
2018-06-28T01:47:23.119Z,5.20
2018-06-28T01:49:51.767Z,6.77
2018-06-28T01:52:20.595Z,5.80
2018-06-28T01:54:49.367Z,6.07
2018-06-28T01:57:32.043Z,6.43
2018-06-28T02:00:02.847Z,5.47
2018-06-28T02:02:32.654Z,6.33
2018-06-28T02:05:05.627Z,5.53
2018-06-28T02:07:35.432Z,5.70
2018-06-28T02:10:14.687Z,4.90
2018-06-28T02:12:43.463Z,6.57
2018-06-28T02:15:12.263Z,7.17
2018-06-28T02:17:43.893Z,5.80
2018-06-28T02:20:12.571Z,5.53
2018-06-28T02:22:46.187Z,8.93
2018-06-28T02:25:16.062Z,5.30
2018-06-28T02:27:51.595Z,5.70
2018-06-28T02:30:26.975Z,6.77
2018-06-28T02:33:02.172Z,5.83
2018-06-28T02:35:32.947Z,6.10
2018-06-28T02:38:05.381Z,6.43
2018-06-28T02:43:29.403Z,6.53
2018-06-28T02:46:00.245Z,6.83
2018-06-28T02:48:35.332Z,7.60
2018-06-28T02:51:05.115Z,5.67
2018-06-28T02:53:33.895Z,6.60
2018-06-28T02:56:12.859Z,6.27
2018-06-28T02:58:41.711Z,6.60
2018-06-28T03:01:10.487Z,9.93
2018-06-28T03:03:45.026Z,6.97
2018-06-28T03:06:15.859Z,7.03
2018-06-28T03:11:41.375Z,6.80
2018-06-28T03:14:11.200Z,6.53
2018-06-28T03:16:40.991Z,6.90
2018-06-28T03:19:11.839Z,7.50
2018-06-28T03:24:45.911Z,7.03
2018-06-28T03:27:15.667Z,6.40
2018-06-28T03:29:57.031Z,15.40
2018-06-28T03:32:27.793Z,6.87
2018-06-28T03:34:56.591Z,7.97
2018-06-28T03:37:25.363Z,7.33
2018-06-28T03:40:06.811Z,5.60
2018-06-28T03:42:41.799Z,6.93
2018-06-28T03:45:12.263Z,6.60
2018-06-28T03:47:41.011Z,7.00
2018-06-28T03:50:11.847Z,6.07
2018-06-28T03:52:41.239Z,7.00
2018-06-28T03:55:12.131Z,6.30
2018-06-28T03:57:48.057Z,6.20
2018-06-28T04:00:17.059Z,6.07
2018-06-28T04:02:47.887Z,6.70
2018-06-28T04:05:22.031Z,6.10
2018-06-28T04:07:50.855Z,7.33
2018-06-28T04:10:29.319Z,7.90
2018-06-28T04:13:16.534Z,6.77
2018-06-28T04:15:47.311Z,6.80
2018-06-28T04:18:28.147Z,6.23
2018-06-28T04:21:05.531Z,7.37
2018-06-28T04:23:36.379Z,6.70
2018-06-28T04:26:21.559Z,6.83
2018-06-28T04:28:56.063Z,6.17
2018-06-28T04:31:28.502Z,6.60
2018-06-28T04:34:06.917Z,9.20
2018-06-28T04:36:41.243Z,8.93
2018-06-28T04:39:15.226Z,7.13
2018-06-28T04:41:55.604Z,6.63
2018-06-28T04:44:28.098Z,6.53
2018-06-28T04:47:12.998Z,6.37
2018-06-28T04:49:55.192Z,6.13
2018-06-28T04:55:21.691Z,7.03
2018-06-28T04:57:51.466Z,6.20
2018-06-28T05:00:22.875Z,7.17
2018-06-28T05:03:05.503Z,13.30
2018-06-28T05:05:49.387Z,6.10
2018-06-28T05:08:20.994Z,5.63
2018-06-28T05:10:53.200Z,6.27
2018-06-28T05:13:24.107Z,5.70
2018-06-28T05:15:53.850Z,6.70
2018-06-28T05:18:26.046Z,7.63
2018-06-28T05:20:54.858Z,5.87
2018-06-28T05:23:31.451Z,6.10
2018-06-28T05:26:10.254Z,7.40
2018-06-28T05:28:55.611Z,6.37
2018-06-28T05:31:30.142Z,10.37
2018-06-28T05:33:59.930Z,6.60
2018-06-28T05:36:33.627Z,6.60
2018-06-28T05:39:14.310Z,6.43
2018-06-28T05:41:48.874Z,6.43
2018-06-28T05:47:12.131Z,6.00
2018-06-28T05:50:03.742Z,6.40
2018-06-28T05:52:32.509Z,5.73
2018-06-28T05:55:08.398Z,7.80
2018-06-28T05:57:49.430Z,5.37
2018-06-28T06:00:37.326Z,5.73
2018-06-28T06:03:06.042Z,6.17
2018-06-28T06:05:47.167Z,5.83
2018-06-28T06:08:22.711Z,6.10
2018-06-28T06:10:52.511Z,4.80
2018-06-28T06:13:39.971Z,9.27
2018-06-28T06:16:10.747Z,7.33
2018-06-28T06:21:46.080Z,5.90
2018-06-28T06:24:14.666Z,5.50
2018-06-28T06:26:53.235Z,6.17
2018-06-28T06:29:28.113Z,5.80
2018-06-28T06:32:13.291Z,6.10
2018-06-28T06:34:45.998Z,6.43
2018-06-28T06:37:14.783Z,5.17
2018-06-28T06:39:50.199Z,6.10
2018-06-28T06:42:19.934Z,14.77
2018-06-28T06:44:48.722Z,5.40
2018-06-28T06:47:38.534Z,5.00
2018-06-28T06:50:10.462Z,5.30
2018-06-28T06:52:48.898Z,5.83
2018-06-28T06:58:23.246Z,5.17
2018-06-28T07:00:52.106Z,5.20
2018-06-28T07:03:21.902Z,4.80
2018-06-28T07:06:07.270Z,4.50
2018-06-28T07:08:45.540Z,4.90
2018-06-28T07:11:15.262Z,5.50
2018-06-28T07:16:39.238Z,5.40
2018-06-28T07:19:08.350Z,4.80
2018-06-28T07:21:39.942Z,5.07
2018-06-28T07:24:09.666Z,5.07
2018-06-28T07:26:42.134Z,7.00
2018-06-28T07:29:14.594Z,5.17
2018-06-28T07:31:43.330Z,5.80
2018-06-28T07:34:14.114Z,6.37
2018-06-28T07:36:43.614Z,4.13
2018-06-28T07:39:23.346Z,4.60
2018-06-28T07:41:54.062Z,4.60
2018-06-28T07:44:33.018Z,4.93
2018-06-28T07:47:01.775Z,5.30
2018-06-28T07:52:35.790Z,5.93
2018-06-28T07:55:14.072Z,5.10
2018-06-28T07:57:55.515Z,4.70
2018-06-28T08:00:31.081Z,5.10
2018-06-28T08:03:05.299Z,4.63
2018-06-28T08:05:35.141Z,4.97
2018-06-28T08:08:14.790Z,4.90
2018-06-28T08:10:47.391Z,4.47
2018-06-28T08:16:13.522Z,6.10
2018-06-28T08:18:49.618Z,5.13
2018-06-28T08:21:29.125Z,5.27
2018-06-28T08:24:01.458Z,6.30
2018-06-28T08:29:27.158Z,11.83
2018-06-28T08:31:55.930Z,5.10
2018-06-28T08:34:30.402Z,4.97
2018-06-28T08:37:02.751Z,4.70
2018-06-28T08:39:31.544Z,8.33
2018-06-28T08:42:05.756Z,8.90
2018-06-28T08:47:32.814Z,5.20
2018-06-28T08:50:09.766Z,5.10
2018-06-28T08:52:38.582Z,5.00
2018-06-28T08:58:12.939Z,4.70
2018-06-28T09:00:42.758Z,4.60
2018-06-28T09:03:16.750Z,4.63
2018-06-28T09:06:01.594Z,4.77
2018-06-28T09:08:31.590Z,4.53
2018-06-28T09:11:13.458Z,4.80
2018-06-28T09:13:44.178Z,5.03
2018-06-28T09:16:14.901Z,4.80
2018-06-28T09:18:49.937Z,5.93
2018-06-28T09:21:24.898Z,4.27
2018-06-28T09:23:58.246Z,4.53
2018-06-28T09:26:45.197Z,4.80
2018-06-28T09:32:39.821Z,4.27
2018-06-28T09:35:08.645Z,5.30
2018-06-28T09:37:38.466Z,5.20
2018-06-28T09:43:06.718Z,4.13
2018-06-28T09:45:41.962Z,4.27
2018-06-28T09:48:14.285Z,8.47
2018-06-28T09:51:00.118Z,5.30
2018-06-28T09:53:47.235Z,6.43
2018-06-28T09:56:19.610Z,4.90
2018-06-28T09:58:58.158Z,4.03
2018-06-28T10:01:40.548Z,4.30
2018-06-28T10:04:13.281Z,3.93
2018-06-28T10:12:43.534Z,6.87
2018-06-28T10:15:13.334Z,6.07
2018-06-28T10:17:46.202Z,3.83
2018-06-28T10:20:17.046Z,3.40
2018-06-28T10:22:52.309Z,3.63
2018-06-28T10:25:28.202Z,7.97
2018-06-28T10:28:13.477Z,4.03
2018-06-28T10:30:58.346Z,3.40
2018-06-28T10:36:22.528Z,29.67
2018-06-28T10:38:51.258Z,4.10
2018-06-28T10:41:32.618Z,4.57
2018-06-28T10:44:12.762Z,4.00
2018-06-28T10:46:53.466Z,3.30
2018-06-28T10:49:36.961Z,3.30
2018-06-28T10:52:05.908Z,5.03
2018-06-28T10:54:35.665Z,3.77
2018-06-28T10:57:12.010Z,4.90
2018-06-28T11:02:51.085Z,4.27
2018-06-28T11:05:37.737Z,4.00
2018-06-28T11:08:09.665Z,4.13
2018-06-28T11:10:54.601Z,3.47
2018-06-28T11:13:23.442Z,8.47
2018-06-28T11:16:02.689Z,3.90
2018-06-28T11:18:54.383Z,3.53
2018-06-28T11:21:23.171Z,3.63
2018-06-28T11:23:53.974Z,3.33
2018-06-28T11:26:26.874Z,3.70
2018-06-28T11:28:59.520Z,3.17
2018-06-28T11:31:30.337Z,3.97
2018-06-28T11:34:10.912Z,4.33
2018-06-28T11:36:43.034Z,4.10
2018-06-28T11:39:12.785Z,3.93
2018-06-28T11:41:48.337Z,4.90
2018-06-28T11:44:24.313Z,3.70
2018-06-28T11:46:54.120Z,4.70
2018-06-28T11:49:23.949Z,4.70
2018-06-28T11:51:53.797Z,3.97
2018-06-28T11:54:23.545Z,4.03
2018-06-28T11:56:57.540Z,4.30
2018-06-28T11:59:39.669Z,4.87
2018-06-28T12:02:08.404Z,4.67
2018-06-28T12:04:46.757Z,4.40
2018-06-28T12:07:19.937Z,3.97
2018-06-28T12:10:04.449Z,4.10
2018-06-28T12:12:37.565Z,7.60
2018-06-28T12:15:11.929Z,4.20
2018-06-28T12:17:46.429Z,4.90
2018-06-28T12:20:16.209Z,4.27
2018-06-28T12:22:47.062Z,9.30
2018-06-28T12:25:18.929Z,4.50
2018-06-28T12:27:51.681Z,5.47
2018-06-28T12:30:21.484Z,3.90
2018-06-28T12:32:53.541Z,4.73
2018-06-28T12:35:32.741Z,3.70
2018-06-28T12:38:11.549Z,5.67
2018-06-28T12:40:40.429Z,3.57
2018-06-28T12:43:08.960Z,8.13
2018-06-28T12:45:37.697Z,3.60
2018-06-28T12:48:13.905Z,4.03
2018-06-28T12:50:50.253Z,4.00
2018-06-28T12:56:18.972Z,5.80
2018-06-28T12:58:53.005Z,3.90
2018-06-28T13:01:35.949Z,4.83
2018-06-28T13:04:04.529Z,4.67
2018-06-28T13:06:36.829Z,6.40
2018-06-28T13:09:13.873Z,5.20
2018-06-28T13:11:46.677Z,6.13
2018-06-28T13:14:16.489Z,7.20
2018-06-28T13:16:46.365Z,5.90
2018-06-28T13:19:24.509Z,5.93
2018-06-28T13:22:11.405Z,6.10
2018-06-28T13:24:41.393Z,6.10
2018-06-28T13:27:10.177Z,6.13
2018-06-28T13:29:42.906Z,6.70
2018-06-28T13:32:12.637Z,6.43
2018-06-28T13:34:44.753Z,6.63
2018-06-28T13:37:13.525Z,6.53
2018-06-28T13:39:46.545Z,7.33
2018-06-28T13:42:16.423Z,6.33
2018-06-28T13:44:47.092Z,6.40
2018-06-28T13:47:16.821Z,6.80
2018-06-28T13:49:48.589Z,7.27
2018-06-28T13:52:22.328Z,6.87
2018-06-28T13:55:03.321Z,8.27
2018-06-28T13:57:32.064Z,7.43
2018-06-28T14:00:02.859Z,6.40
2018-06-28T14:02:31.362Z,6.73
2018-06-28T14:05:01.137Z,7.33
2018-06-28T14:07:33.920Z,8.33
2018-06-28T14:10:15.253Z,6.80
2018-06-28T14:12:49.465Z,6.57
2018-06-28T14:15:24.349Z,6.60
2018-06-28T14:17:56.689Z,6.70
2018-06-28T14:20:25.476Z,7.23
2018-06-28T14:22:56.160Z,7.40
2018-06-28T14:25:30.348Z,7.07
2018-06-28T14:27:59.208Z,8.37
2018-06-28T14:30:31.276Z,6.20
2018-06-28T14:33:01.105Z,6.27
2018-06-28T14:38:35.401Z,6.50
2018-06-28T14:41:11.628Z,6.23
2018-06-28T14:43:45.193Z,8.00
2018-06-28T14:46:15.080Z,7.40
2018-06-28T14:48:43.984Z,6.00
2018-06-28T14:51:12.820Z,6.77
2018-06-28T14:53:42.704Z,5.87
2018-06-28T14:56:22.096Z,7.60
2018-06-28T14:58:52.128Z,7.13
2018-06-28T15:01:24.952Z,7.30
2018-06-28T15:04:01.177Z,6.73
2018-06-28T15:06:30.117Z,7.00
2018-06-28T15:09:07.308Z,5.70
2018-06-28T15:11:36.165Z,6.40
2018-06-28T15:14:08.017Z,7.33
2018-06-28T15:16:39.892Z,6.63
2018-06-28T15:19:09.708Z,7.30
2018-06-28T15:21:57.073Z,6.03
2018-06-28T15:24:33.932Z,7.30
2018-06-28T15:27:02.777Z,6.93
2018-06-28T15:29:54.265Z,7.13
2018-06-28T15:32:23.080Z,7.10
2018-06-28T15:34:51.832Z,6.57
2018-06-28T15:37:43.653Z,7.43
2018-06-28T15:40:12.735Z,6.63
2018-06-28T15:42:52.376Z,6.27
2018-06-28T15:45:22.345Z,8.53
2018-06-28T15:47:52.089Z,6.97
2018-06-28T15:50:28.712Z,5.73
2018-06-28T15:53:02.860Z,6.80
2018-06-28T15:55:37.708Z,6.87
2018-06-28T15:58:07.320Z,6.80
2018-06-28T16:00:36.126Z,6.03
2018-06-28T16:03:05.869Z,6.60
2018-06-28T16:05:35.705Z,6.90
2018-06-28T16:08:10.560Z,7.23
2018-06-28T16:16:40.029Z,7.40
2018-06-28T16:19:14.320Z,7.07
2018-06-28T16:21:56.976Z,6.20
2018-06-28T16:24:31.432Z,6.07
2018-06-28T16:27:06.152Z,6.90
2018-06-28T16:29:35.910Z,6.97
2018-06-28T16:32:04.609Z,5.93
2018-06-28T16:34:36.468Z,7.37
2018-06-28T16:37:10.868Z,9.03
2018-06-28T16:39:47.168Z,10.10
2018-06-28T16:42:16.904Z,6.93
2018-06-28T16:44:52.480Z,8.40
2018-06-28T16:47:32.288Z,7.63
2018-06-28T16:50:01.089Z,8.00
2018-06-28T16:55:31.577Z,7.37
2018-06-28T16:58:04.974Z,8.37
2018-06-28T17:00:35.776Z,7.27
2018-06-28T17:03:16.140Z,9.60
2018-06-28T17:05:47.032Z,8.13
2018-06-28T17:08:20.928Z,8.03
2018-06-28T17:10:49.776Z,8.07
2018-06-28T17:13:21.720Z,8.03
2018-06-28T17:15:54.648Z,8.07
2018-06-28T17:18:26.677Z,8.40
2018-06-28T17:20:57.472Z,8.93
2018-06-28T17:23:31.836Z,7.23
2018-06-28T17:26:01.332Z,8.17
2018-06-28T17:28:31.027Z,8.20
2018-06-28T17:30:59.792Z,8.17
2018-06-28T17:33:29.564Z,8.30
2018-06-28T17:36:01.540Z,9.00
2018-06-28T17:38:33.748Z,7.67
2018-06-28T17:41:03.496Z,8.07
2018-06-28T17:43:35.508Z,8.33
2018-06-28T17:46:09.960Z,8.23
2018-06-28T17:48:39.728Z,8.57
2018-06-28T17:51:08.516Z,8.97
2018-06-28T17:53:39.308Z,8.07
2018-06-28T17:56:09.152Z,8.40
2018-06-28T17:58:42.796Z,7.67
2018-06-28T18:01:11.592Z,8.83
2018-06-28T18:03:54.569Z,9.23
2018-06-28T18:06:26.460Z,8.33
2018-06-28T18:08:59.234Z,8.47
2018-06-28T18:11:29.963Z,9.03
2018-06-28T18:13:59.928Z,8.27
2018-06-28T18:16:32.844Z,8.20
2018-06-28T18:19:10.150Z,10.00
2018-06-28T18:21:44.512Z,9.33
2018-06-28T18:24:14.339Z,9.53
2018-06-28T18:26:48.116Z,9.80
2018-06-28T18:29:17.947Z,10.07
2018-06-28T18:32:06.975Z,12.63
2018-06-28T18:34:36.787Z,10.43
2018-06-28T18:37:05.856Z,12.07
2018-06-28T18:39:35.908Z,12.33
2018-06-28T18:42:06.687Z,10.00
2018-06-28T18:44:37.470Z,10.83
2018-06-28T18:47:08.361Z,11.87
2018-06-28T18:49:39.187Z,11.70
2018-06-28T18:52:10.019Z,11.13
2018-06-28T18:54:43.627Z,10.83
2018-06-28T18:57:16.166Z,11.40
2018-06-28T18:59:45.948Z,11.10
2018-06-28T19:02:15.772Z,11.20
2018-06-28T19:04:47.531Z,9.80
2018-06-28T19:07:23.227Z,9.90
2018-06-28T19:10:10.032Z,11.80
2018-06-28T19:12:39.827Z,12.00
2018-06-28T19:15:15.931Z,10.60
2018-06-28T19:17:44.783Z,10.60
2018-06-28T19:20:25.811Z,12.57
2018-06-28T19:23:00.064Z,12.03
2018-06-28T19:25:29.803Z,10.43
2018-06-28T19:27:59.727Z,12.10
2018-06-28T19:33:23.764Z,10.87
2018-06-28T19:36:03.761Z,11.00
2018-06-28T19:38:43.744Z,11.83
2018-06-28T19:41:21.253Z,11.60
2018-06-28T19:43:59.900Z,10.17
2018-06-28T19:46:28.764Z,10.40
2018-06-28T19:49:10.008Z,11.17
2018-06-28T19:51:57.079Z,10.87
2018-06-28T19:54:45.043Z,15.93
2018-06-28T19:57:21.683Z,12.50
2018-06-28T19:59:55.012Z,11.33
2018-06-28T20:02:45.351Z,11.37
2018-06-28T20:08:11.177Z,10.03
2018-06-28T20:10:41.392Z,10.20
2018-06-28T20:13:17.758Z,11.00
2018-06-28T20:16:04.888Z,10.70
2018-06-28T20:18:49.243Z,11.10
2018-06-28T20:21:24.599Z,10.67
2018-06-28T20:23:57.695Z,10.67
2018-06-28T20:26:39.252Z,10.90
2018-06-28T20:29:15.379Z,9.20
2018-06-28T20:31:51.598Z,11.33
2018-06-28T20:34:23.445Z,12.10
2018-06-28T20:36:52.412Z,11.70
2018-06-28T20:39:21.219Z,10.80
2018-06-28T20:41:50.095Z,10.50
2018-06-28T20:44:18.899Z,12.03
2018-06-28T20:46:54.619Z,11.77
2018-06-28T20:49:33.312Z,12.67
2018-06-28T20:52:08.371Z,12.60
2018-06-28T20:54:37.907Z,9.93
2018-06-28T20:57:07.796Z,11.10
2018-06-28T20:59:54.703Z,11.33
2018-06-28T21:02:31.262Z,10.77
2018-06-28T21:05:07.251Z,10.43
2018-06-28T21:07:46.211Z,11.00
2018-06-28T21:10:14.996Z,11.70
2018-06-28T21:12:43.756Z,15.70
2018-06-28T21:15:17.457Z,12.50
2018-06-28T21:17:47.168Z,13.87
2018-06-28T21:23:14.135Z,11.57
2018-06-28T21:25:42.935Z,11.63
2018-06-28T21:28:11.700Z,11.77
2018-06-28T21:30:42.607Z,12.03
2018-06-28T21:33:13.371Z,11.40
2018-06-28T21:35:51.935Z,10.20
2018-06-28T21:38:22.695Z,11.00
2018-06-28T21:40:52.444Z,10.50
2018-06-28T21:43:27.364Z,12.23
2018-06-28T21:46:08.192Z,12.90
2018-06-28T21:48:40.487Z,10.87
2018-06-28T21:51:23.272Z,11.30
2018-06-28T21:53:54.024Z,11.40
2018-06-28T21:56:27.444Z,12.67
2018-06-28T21:58:59.319Z,12.97
2018-06-28T22:01:28.154Z,13.63
2018-06-28T22:04:02.283Z,12.70
2018-06-28T22:06:32.279Z,12.50
2018-06-28T22:09:07.679Z,13.97
2018-06-28T22:11:38.559Z,13.80
2018-06-28T22:14:09.345Z,13.93
2018-06-28T22:16:40.115Z,13.87
2018-06-28T22:19:15.463Z,15.13
2018-06-28T22:21:51.863Z,13.10
2018-06-28T22:24:23.883Z,15.00
2018-06-28T22:26:58.087Z,14.13
2018-06-28T22:29:33.642Z,13.03
2018-06-28T22:32:09.706Z,15.47
2018-06-28T22:34:38.563Z,14.87
2018-06-28T22:37:08.383Z,14.63
2018-06-28T22:39:37.154Z,14.40
2018-06-28T22:42:12.335Z,14.30
2018-06-28T22:44:42.098Z,15.13
2018-06-28T22:47:10.990Z,14.70
2018-06-28T22:49:40.827Z,15.23
2018-06-28T22:52:09.622Z,18.73
2018-06-28T22:54:40.370Z,18.73
2018-06-28T22:57:10.170Z,17.10
2018-06-28T22:59:39.047Z,17.17
2018-06-28T23:02:08.807Z,17.27
2018-06-28T23:04:37.602Z,16.90
2018-06-28T23:07:10.751Z,16.40
2018-06-28T23:09:39.651Z,15.43
2018-06-28T23:12:09.431Z,16.97
2018-06-28T23:14:39.035Z,16.63
2018-06-28T23:17:08.436Z,16.57
2018-06-28T23:19:37.941Z,16.03
2018-06-28T23:22:25.599Z,16.30
2018-06-28T23:24:54.479Z,12.87
2018-06-28T23:27:26.859Z,13.60
2018-06-28T23:29:55.407Z,13.03
2018-06-28T23:32:27.715Z,13.23
2018-06-28T23:34:59.724Z,12.30
2018-06-28T23:37:28.579Z,12.27
2018-06-28T23:40:01.211Z,13.03
2018-06-28T23:42:34.979Z,11.87
2018-06-28T23:45:04.263Z,10.93
2018-06-28T23:47:39.056Z,11.27
2018-06-28T23:50:17.859Z,11.70
2018-06-28T23:52:50.295Z,9.93
2018-06-28T23:55:20.039Z,10.67
2018-06-28T23:57:48.851Z,11.73
